sensor_id;sensor_type;location;lat;lon;timestamp;P1;durP1;ratioP1;P2;durP2;ratioP2
62106;SDS011;48087;32.600;-97.100;2023-02-26T00:01:27;55;;;48;;
62106;SDS011;48087;32.600;-97.100;2023-02-26T00:23:42;57;;;50;;
62106;SDS011;48087;32.600;-97.100;2023-02-26T00:46:00;74;;;63;;
62106;SDS011;48087;32.600;-97.100;2023-02-26T01:30:28;62;;;53;;
62106;SDS011;48087;32.600;-97.100;2023-02-26T02:15:03;73;;;61;;
62106;SDS011;48087;32.600;-97.100;2023-02-26T02:37:17;60;;;53;;
62106;SDS011;48087;32.600;-97.100;2023-02-26T02:59:31;62;;;53;;
62106;SDS011;48087;32.600;-97.100;2023-02-26T03:21:46;64;;;55;;
62106;SDS011;48087;32.600;-97.100;2023-02-26T03:44:02;69;;;60;;
62106;SDS011;48087;32.600;-97.100;2023-02-26T04:06:16;60;;;53;;
62106;SDS011;48087;32.600;-97.100;2023-02-26T04:28:33;67;;;58;;
62106;SDS011;48087;32.600;-97.100;2023-02-26T04:50:47;58;;;51;;
62106;SDS011;48087;32.600;-97.100;2023-02-26T05:13:02;55;;;48;;
62106;SDS011;48087;32.600;-97.100;2023-02-26T05:35:18;55;;;48;;
62106;SDS011;48087;32.600;-97.100;2023-02-26T05:57:34;64;;;55;;
62106;SDS011;48087;32.600;-97.100;2023-02-26T06:19:49;73;;;61;;
62106;SDS011;48087;32.600;-97.100;2023-02-26T07:04:20;67;;;58;;
62106;SDS011;48087;32.600;-97.100;2023-02-26T07:05:29;69;;;60;;
62106;SDS011;48087;32.600;-97.100;2023-02-26T07:27:45;55;;;48;;
62106;SDS011;48087;32.600;-97.100;2023-02-26T07:28:54;64;;;55;;
62106;SDS011;48087;32.600;-97.100;2023-02-26T07:51:09;74;;;63;;
62106;SDS011;48087;32.600;-97.100;2023-02-26T08:13:25;78;;;66;;
62106;SDS011;48087;32.600;-97.100;2023-02-26T08:57:56;87;;;73;;
62106;SDS011;48087;32.600;-97.100;2023-02-26T09:20:11;82;;;68;;
62106;SDS011;48087;32.600;-97.100;2023-02-26T09:42:30;82;;;68;;
62106;SDS011;48087;32.600;-97.100;2023-02-26T09:44:39;92;;;76;;
62106;SDS011;48087;32.600;-97.100;2023-02-26T10:05:57;85;;;71;;
62106;SDS011;48087;32.600;-97.100;2023-02-26T10:28:10;87;;;73;;
62106;SDS011;48087;32.600;-97.100;2023-02-26T10:50:22;82;;;68;;
62106;SDS011;48087;32.600;-97.100;2023-02-26T11:12:37;69;;;60;;
62106;SDS011;48087;32.600;-97.100;2023-02-26T11:34:52;78;;;66;;
62106;SDS011;48087;32.600;-97.100;2023-02-26T11:57:13;78;;;66;;
62106;SDS011;48087;32.600;-97.100;2023-02-26T12:41:42;73;;;61;;
62106;SDS011;48087;32.600;-97.100;2023-02-26T12:42:50;82;;;68;;
62106;SDS011;48087;32.600;-97.100;2023-02-26T13:05:08;67;;;58;;
62106;SDS011;48087;32.600;-97.100;2023-02-26T13:27:19;69;;;60;;
62106;SDS011;48087;32.600;-97.100;2023-02-26T13:49:37;67;;;58;;
62106;SDS011;48087;32.600;-97.100;2023-02-26T14:11:56;69;;;60;;
62106;SDS011;48087;32.600;-97.100;2023-02-26T14:35:17;73;;;61;;
62106;SDS011;48087;32.600;-97.100;2023-02-26T14:57:34;74;;;63;;
62106;SDS011;48087;32.600;-97.100;2023-02-26T15:19:53;64;;;55;;
62106;SDS011;48087;32.600;-97.100;2023-02-26T15:42:04;58;;;51;;
62106;SDS011;48087;32.600;-97.100;2023-02-26T15:43:14;69;;;60;;
62106;SDS011;48087;32.600;-97.100;2023-02-26T16:05:30;67;;;58;;
62106;SDS011;48087;32.600;-97.100;2023-02-26T16:27:47;58;;;51;;
62106;SDS011;48087;32.600;-97.100;2023-02-26T16:50:07;60;;;53;;
62106;SDS011;48087;32.600;-97.100;2023-02-26T17:12:22;67;;;58;;
62106;SDS011;48087;32.600;-97.100;2023-02-26T17:34:40;55;;;48;;
62106;SDS011;48087;32.600;-97.100;2023-02-26T18:19:17;62;;;53;;
62106;SDS011;48087;32.600;-97.100;2023-02-26T18:41:35;67;;;58;;
62106;SDS011;48087;32.600;-97.100;2023-02-26T19:03:54;64;;;55;;
62106;SDS011;48087;32.600;-97.100;2023-02-26T19:26:14;62;;;53;;
62106;SDS011;48087;32.600;-97.100;2023-02-26T19:48:33;44;;;43;;
62106;SDS011;48087;32.600;-97.100;2023-02-26T20:10:54;40;;;36;;
62106;SDS011;48087;32.600;-97.100;2023-02-26T20:33:15;37;;;33;;
62106;SDS011;48087;32.600;-97.100;2023-02-26T21:18:01;25;;;22;;
62106;SDS011;48087;32.600;-97.100;2023-02-26T21:40:25;24;;;21;;
62106;SDS011;48087;32.600;-97.100;2023-02-26T22:02:49;23;;;20;;
62106;SDS011;48087;32.600;-97.100;2023-02-26T22:25:14;20;;;17;;
62106;SDS011;48087;32.600;-97.100;2023-02-26T22:47:36;20;;;17;;
62106;SDS011;48087;32.600;-97.100;2023-02-26T23:09:59;14;;;14;;
62106;SDS011;48087;32.600;-97.100;2023-02-26T23:32:22;13;;;13;;
62106;SDS011;48087;32.600;-97.100;2023-02-26T23:54:45;19;;;17;;
